createdAt,value
2022-12-24T00:01:40.040Z,58.70
2022-12-24T00:04:08.725Z,58.50
2022-12-24T00:06:37.337Z,57.30
2022-12-24T00:09:06.215Z,57.00
2022-12-24T00:11:34.880Z,57.10
2022-12-24T00:14:03.679Z,56.60
2022-12-24T00:16:32.469Z,56.60
2022-12-24T00:19:02.497Z,57.30
2022-12-24T00:21:31.113Z,57.50
2022-12-24T00:24:00.480Z,57.30
2022-12-24T00:26:29.050Z,57.10
2022-12-24T00:28:57.895Z,57.00
2022-12-24T00:31:26.629Z,55.20
2022-12-24T00:33:55.357Z,56.20
2022-12-24T00:36:25.442Z,55.20
2022-12-24T00:38:54.063Z,54.70
2022-12-24T00:41:29.592Z,54.00
2022-12-24T00:44:01.182Z,53.90
2022-12-24T00:46:32.887Z,54.70
2022-12-24T00:49:01.925Z,54.10
2022-12-24T00:51:32.388Z,54.60
2022-12-24T00:54:01.227Z,53.80
2022-12-24T00:56:30.095Z,53.90
2022-12-24T00:58:59.223Z,53.80
2022-12-24T01:01:29.085Z,53.00
2022-12-24T01:04:18.463Z,53.00
2022-12-24T01:06:47.476Z,53.00
2022-12-24T01:09:17.403Z,52.70
2022-12-24T01:11:46.374Z,52.50
2022-12-24T01:14:14.952Z,52.30
2022-12-24T01:16:43.528Z,53.00
2022-12-24T01:19:12.146Z,51.70
2022-12-24T01:21:40.787Z,52.50
2022-12-24T01:24:16.325Z,52.20
2022-12-24T01:26:45.403Z,52.10
2022-12-24T01:29:14.045Z,52.10
2022-12-24T01:31:42.743Z,51.70
2022-12-24T01:34:11.718Z,51.50
2022-12-24T01:36:40.318Z,51.60
2022-12-24T01:39:10.297Z,51.40
2022-12-24T01:41:56.702Z,51.10
2022-12-24T01:44:35.235Z,51.70
2022-12-24T01:47:12.683Z,51.10
2022-12-24T01:49:51.341Z,51.10
2022-12-24T01:52:24.224Z,50.20
2022-12-24T01:54:59.894Z,49.90
2022-12-24T01:57:33.331Z,49.80
2022-12-24T02:00:07.684Z,49.40
2022-12-24T02:02:37.090Z,50.50
2022-12-24T02:05:13.869Z,50.80
2022-12-24T02:07:43.628Z,50.50
2022-12-24T02:10:16.105Z,50.60
2022-12-24T02:12:46.480Z,51.10
2022-12-24T02:15:19.380Z,51.70
2022-12-24T02:18:01.393Z,52.20
2022-12-24T02:20:59.194Z,52.60
2022-12-24T02:24:06.516Z,52.70
2022-12-24T02:27:03.861Z,52.50
2022-12-24T02:30:07.824Z,53.20
2022-12-24T02:32:56.812Z,53.00
2022-12-24T02:35:37.438Z,52.90
2022-12-24T02:38:16.097Z,53.10
2022-12-24T02:40:52.105Z,53.40
2022-12-24T02:43:25.939Z,53.80
2022-12-24T02:46:01.173Z,54.50
2022-12-24T02:48:32.283Z,55.30
2022-12-24T02:51:06.138Z,55.40
2022-12-24T02:53:36.924Z,57.00
2022-12-24T02:56:38.925Z,57.80
2022-12-24T02:59:31.774Z,58.90
2022-12-24T03:02:19.808Z,60.40
2022-12-24T03:04:58.737Z,61.00
2022-12-24T03:07:36.652Z,60.90
2022-12-24T03:10:18.324Z,61.80
2022-12-24T03:12:51.858Z,62.00
2022-12-24T03:15:24.783Z,63.00
2022-12-24T03:18:01.076Z,63.10
2022-12-24T03:20:36.799Z,62.80
2022-12-24T03:23:06.465Z,61.80
2022-12-24T03:25:39.472Z,61.80
2022-12-24T03:28:11.821Z,60.80
2022-12-24T03:30:42.876Z,60.50
2022-12-24T03:33:15.179Z,60.20
2022-12-24T03:35:44.271Z,60.00
2022-12-24T03:38:13.178Z,60.00
2022-12-24T03:40:41.885Z,59.70
2022-12-24T03:43:10.665Z,58.80
2022-12-24T03:45:39.523Z,58.80
2022-12-24T03:48:08.653Z,59.30
2022-12-24T03:50:39.206Z,59.50
2022-12-24T03:53:07.985Z,59.10
2022-12-24T03:55:36.721Z,58.90
2022-12-24T03:58:05.407Z,58.00
2022-12-24T04:00:34.394Z,58.20
2022-12-24T04:03:03.140Z,58.00
2022-12-24T04:05:31.973Z,58.20
2022-12-24T04:08:01.964Z,58.10
2022-12-24T04:10:30.813Z,58.30
2022-12-24T04:12:59.595Z,58.10
2022-12-24T04:15:28.224Z,57.70
2022-12-24T04:17:56.934Z,57.50
2022-12-24T04:20:25.733Z,56.80
2022-12-24T04:22:55.266Z,56.40
2022-12-24T04:25:25.452Z,56.10
2022-12-24T04:27:54.119Z,55.50
2022-12-24T04:30:22.747Z,55.10
2022-12-24T04:32:51.356Z,55.30
2022-12-24T04:35:20.159Z,55.00
2022-12-24T04:37:48.870Z,55.00
2022-12-24T04:40:17.674Z,54.80
2022-12-24T04:42:47.732Z,54.80
2022-12-24T04:45:16.473Z,54.80
2022-12-24T04:47:45.832Z,54.70
2022-12-24T04:50:14.619Z,54.70
2022-12-24T04:52:43.474Z,54.80
2022-12-24T04:55:12.486Z,54.80
2022-12-24T04:57:41.588Z,54.80
2022-12-24T05:00:14.227Z,55.00
2022-12-24T05:02:43.119Z,55.00
2022-12-24T05:05:12.083Z,54.80
2022-12-24T05:07:40.847Z,55.30
2022-12-24T05:10:12.052Z,55.50
2022-12-24T05:12:40.758Z,55.50
2022-12-24T05:15:11.681Z,55.40
2022-12-24T05:17:40.464Z,55.50
2022-12-24T05:20:10.104Z,56.30
2022-12-24T05:22:56.178Z,56.50
2022-12-24T05:25:41.551Z,56.70
2022-12-24T05:28:10.388Z,56.60
2022-12-24T05:30:40.705Z,56.70
2022-12-24T05:33:09.381Z,56.90
2022-12-24T05:35:38.118Z,57.10
2022-12-24T05:38:06.827Z,57.20
2022-12-24T05:40:35.509Z,57.30
2022-12-24T05:43:04.256Z,57.20
2022-12-24T05:45:36.101Z,57.20
2022-12-24T05:48:08.203Z,56.90
2022-12-24T05:50:37.311Z,56.90
2022-12-24T05:53:07.996Z,57.00
2022-12-24T05:55:36.709Z,57.70
2022-12-24T05:58:05.305Z,58.10
2022-12-24T06:00:34.977Z,58.10
2022-12-24T06:03:05.272Z,57.90
2022-12-24T06:05:35.591Z,57.80
2022-12-24T06:08:04.693Z,57.60
2022-12-24T06:10:33.823Z,57.50
2022-12-24T06:13:02.633Z,57.20
2022-12-24T06:15:31.511Z,56.90
2022-12-24T06:18:00.248Z,56.70
2022-12-24T06:20:30.379Z,56.70
2022-12-24T06:22:59.126Z,57.00
2022-12-24T06:25:27.873Z,56.80
2022-12-24T06:27:58.400Z,56.70
2022-12-24T06:30:27.348Z,56.40
2022-12-24T06:32:55.850Z,56.70
2022-12-24T06:35:25.862Z,56.60
2022-12-24T06:37:56.566Z,56.80
2022-12-24T06:40:25.286Z,56.90
2022-12-24T06:42:54.111Z,56.60
2022-12-24T06:45:23.637Z,56.30
2022-12-24T06:47:53.925Z,56.40
2022-12-24T06:50:24.167Z,56.70
2022-12-24T06:52:53.112Z,56.90
2022-12-24T06:55:23.763Z,56.80
2022-12-24T06:57:52.842Z,56.60
2022-12-24T07:00:23.024Z,56.70
2022-12-24T07:02:52.050Z,56.20
2022-12-24T07:05:21.250Z,55.90
2022-12-24T07:07:49.914Z,55.60
2022-12-24T07:10:21.659Z,55.20
2022-12-24T07:12:52.260Z,54.70
2022-12-24T07:15:21.477Z,54.50
2022-12-24T07:17:50.220Z,55.00
2022-12-24T07:20:19.762Z,55.30
2022-12-24T07:22:49.130Z,55.10
2022-12-24T07:25:18.129Z,54.80
2022-12-24T07:27:46.764Z,54.40
2022-12-24T07:30:17.238Z,54.90
2022-12-24T07:32:46.102Z,54.00
2022-12-24T07:35:15.007Z,54.00
2022-12-24T07:37:43.685Z,53.90
2022-12-24T07:40:13.228Z,54.00
2022-12-24T07:42:42.003Z,54.00
2022-12-24T07:45:11.985Z,54.70
2022-12-24T07:47:42.311Z,54.70
2022-12-24T07:50:11.811Z,55.00
2022-12-24T07:52:40.568Z,55.60
2022-12-24T07:55:10.108Z,56.00
2022-12-24T07:57:38.875Z,56.20
2022-12-24T08:00:10.233Z,56.20
2022-12-24T08:02:41.588Z,55.80
2022-12-24T08:05:10.912Z,56.00
2022-12-24T08:07:39.563Z,56.00
2022-12-24T08:10:10.064Z,55.60
2022-12-24T08:12:38.677Z,55.80
2022-12-24T08:15:08.551Z,56.10
2022-12-24T08:17:37.122Z,56.10
2022-12-24T08:20:09.363Z,55.80
2022-12-24T08:22:38.027Z,55.80
2022-12-24T08:25:07.576Z,56.00
2022-12-24T08:27:36.123Z,56.00
2022-12-24T08:30:05.117Z,56.00
2022-12-24T08:32:34.079Z,56.00
2022-12-24T08:35:02.704Z,56.40
2022-12-24T08:37:32.764Z,56.60
2022-12-24T08:40:01.270Z,57.20
2022-12-24T08:42:29.872Z,56.90
2022-12-24T08:44:58.400Z,56.60
2022-12-24T08:47:26.892Z,56.90
2022-12-24T08:49:55.429Z,56.80
2022-12-24T08:52:24.005Z,56.70
2022-12-24T08:54:54.112Z,56.70
2022-12-24T08:57:22.619Z,56.90
2022-12-24T08:59:51.286Z,56.60
2022-12-24T09:02:21.288Z,56.00
2022-12-24T09:04:50.707Z,55.90
2022-12-24T09:07:19.282Z,56.00
2022-12-24T09:09:48.258Z,56.10
2022-12-24T09:12:18.309Z,54.90
2022-12-24T09:14:46.926Z,54.60
2022-12-24T09:17:15.381Z,54.60
2022-12-24T09:19:43.938Z,54.40
2022-12-24T09:22:12.344Z,53.10
2022-12-24T09:24:40.824Z,52.90
2022-12-24T09:27:09.361Z,53.00
2022-12-24T09:29:40.783Z,52.80
2022-12-24T09:32:09.576Z,52.80
2022-12-24T09:34:38.572Z,51.90
2022-12-24T09:37:07.097Z,52.00
2022-12-24T09:39:35.684Z,51.60
2022-12-24T09:42:20.789Z,51.00
2022-12-24T09:45:00.159Z,51.40
2022-12-24T09:47:35.849Z,51.60
2022-12-24T09:50:42.728Z,52.90
2022-12-24T09:53:20.724Z,51.50
2022-12-24T09:55:52.770Z,44.60
2022-12-24T09:58:29.236Z,38.50
2022-12-24T10:00:59.838Z,32.90
2022-12-24T10:03:29.255Z,24.50
2022-12-24T10:06:12.444Z,23.30
2022-12-24T10:09:01.135Z,21.60
2022-12-24T10:11:44.529Z,23.00
2022-12-24T10:14:35.613Z,24.40
2022-12-24T10:17:37.722Z,24.90
2022-12-24T10:20:32.922Z,28.20
2022-12-24T10:23:12.777Z,30.80
2022-12-24T10:25:52.533Z,32.60
2022-12-24T10:28:29.701Z,32.50
2022-12-24T10:31:06.724Z,33.60
2022-12-24T10:33:42.869Z,30.10
2022-12-24T10:36:18.764Z,28.60
2022-12-24T10:38:48.151Z,30.30
2022-12-24T10:41:18.188Z,30.80
2022-12-24T10:43:48.739Z,29.20
2022-12-24T10:46:24.271Z,25.80
2022-12-24T10:49:00.314Z,20.40
2022-12-24T10:51:43.139Z,18.00
2022-12-24T10:54:22.502Z,18.50
2022-12-24T10:57:04.139Z,19.00
2022-12-24T10:59:42.983Z,19.70
2022-12-24T11:02:29.817Z,21.50
2022-12-24T11:05:01.114Z,21.70
2022-12-24T11:07:32.285Z,18.30
2022-12-24T11:10:03.370Z,19.10
2022-12-24T11:12:38.382Z,18.80
2022-12-24T11:15:17.395Z,19.80
2022-12-24T11:17:56.050Z,22.20
2022-12-24T11:20:29.888Z,25.20
2022-12-24T11:22:59.361Z,25.40
2022-12-24T11:25:31.758Z,25.50
2022-12-24T11:28:14.569Z,23.30
2022-12-24T11:30:43.024Z,21.20
2022-12-24T11:33:20.994Z,18.30
2022-12-24T11:35:57.877Z,15.40
2022-12-24T11:38:28.958Z,14.20
2022-12-24T11:41:05.693Z,12.50
2022-12-24T11:43:45.683Z,10.90
2022-12-24T11:46:37.114Z,10.70
2022-12-24T11:49:17.765Z,12.10
2022-12-24T11:52:22.443Z,14.50
2022-12-24T11:55:15.631Z,15.30
2022-12-24T11:57:56.535Z,13.70
2022-12-24T12:00:26.558Z,16.40
2022-12-24T12:03:00.855Z,18.60
2022-12-24T12:05:34.590Z,19.40
2022-12-24T12:08:17.657Z,20.20
2022-12-24T12:10:49.321Z,22.20
2022-12-24T12:13:24.426Z,23.80
2022-12-24T12:16:07.738Z,26.90
2022-12-24T12:18:40.673Z,27.00
2022-12-24T12:21:18.087Z,28.60
2022-12-24T12:23:53.897Z,28.70
2022-12-24T12:26:28.533Z,28.50
2022-12-24T12:29:02.967Z,28.30
2022-12-24T12:31:37.696Z,29.90
2022-12-24T12:34:15.400Z,29.00
2022-12-24T12:36:48.632Z,29.00
2022-12-24T12:39:19.417Z,28.50
2022-12-24T12:42:00.501Z,28.40
2022-12-24T12:45:03.196Z,29.30
2022-12-24T12:47:59.258Z,29.30
2022-12-24T12:50:36.079Z,29.50
2022-12-24T12:53:25.452Z,31.00
2022-12-24T12:56:07.138Z,30.00
2022-12-24T12:58:42.966Z,30.80
2022-12-24T13:01:22.489Z,30.90
2022-12-24T13:04:43.041Z,31.00
2022-12-24T13:07:49.003Z,31.70
2022-12-24T13:10:59.001Z,32.10
2022-12-24T13:13:51.691Z,32.50
2022-12-24T13:16:56.510Z,33.00
2022-12-24T13:19:46.537Z,33.00
2022-12-24T13:22:18.874Z,32.40
2022-12-24T13:24:53.733Z,32.00
2022-12-24T13:27:27.612Z,31.40
2022-12-24T13:30:07.234Z,31.20
2022-12-24T13:32:48.535Z,31.00
2022-12-24T13:35:40.050Z,31.80
2022-12-24T13:38:35.955Z,31.20
2022-12-24T13:41:59.857Z,30.60
2022-12-24T13:44:36.590Z,31.50
2022-12-24T13:47:33.583Z,32.30
2022-12-24T13:50:36.137Z,32.70
2022-12-24T13:53:06.908Z,31.80
2022-12-24T13:55:36.319Z,32.50
2022-12-24T13:58:07.759Z,33.20
2022-12-24T14:00:44.079Z,34.10
2022-12-24T14:03:31.228Z,34.70
2022-12-24T14:06:04.053Z,34.80
2022-12-24T14:08:40.215Z,35.00
2022-12-24T14:11:13.821Z,36.20
2022-12-24T14:14:26.853Z,36.40
2022-12-24T14:16:57.672Z,37.10
2022-12-24T14:19:37.388Z,37.80
2022-12-24T14:22:27.056Z,37.90
2022-12-24T14:25:00.863Z,38.40
2022-12-24T14:27:39.821Z,38.60
2022-12-24T14:30:18.901Z,38.30
2022-12-24T14:32:48.631Z,38.60
2022-12-24T14:35:22.037Z,38.80
2022-12-24T14:37:58.147Z,38.70
2022-12-24T14:40:33.192Z,38.60
2022-12-24T14:43:15.255Z,38.40
2022-12-24T14:45:53.099Z,39.40
2022-12-24T14:48:34.539Z,39.20
2022-12-24T14:51:16.134Z,39.70
2022-12-24T14:54:10.329Z,40.10
2022-12-24T14:56:39.066Z,40.60
2022-12-24T14:59:17.688Z,40.90
2022-12-24T15:01:47.088Z,41.30
2022-12-24T15:04:19.644Z,41.60
2022-12-24T15:06:54.747Z,42.80
2022-12-24T15:09:27.499Z,43.60
2022-12-24T15:12:03.494Z,44.60
2022-12-24T15:14:41.651Z,43.60
2022-12-24T15:17:13.494Z,43.50
2022-12-24T15:19:45.915Z,43.30
2022-12-24T15:22:25.961Z,43.20
2022-12-24T15:24:55.007Z,43.40
2022-12-24T15:27:26.718Z,43.70
2022-12-24T15:29:58.853Z,44.00
2022-12-24T15:32:27.443Z,44.60
2022-12-24T15:34:57.059Z,44.60
2022-12-24T15:37:38.969Z,44.80
2022-12-24T15:40:46.257Z,45.50
2022-12-24T15:43:14.881Z,46.00
2022-12-24T15:45:48.527Z,46.30
2022-12-24T15:48:24.744Z,46.20
2022-12-24T15:50:56.164Z,46.00
2022-12-24T15:53:31.670Z,45.80
2022-12-24T15:56:10.127Z,45.70
2022-12-24T15:58:41.169Z,46.70
2022-12-24T16:01:38.251Z,47.30
2022-12-24T16:04:16.316Z,48.20
2022-12-24T16:06:57.834Z,48.50
2022-12-24T16:09:45.930Z,48.50
2022-12-24T16:12:19.743Z,48.80
2022-12-24T16:14:53.360Z,48.80
2022-12-24T16:17:25.837Z,48.90
2022-12-24T16:20:01.973Z,48.60
2022-12-24T16:22:35.198Z,48.20
2022-12-24T16:25:25.598Z,48.00
2022-12-24T16:27:59.875Z,47.40
2022-12-24T16:30:29.516Z,47.00
2022-12-24T16:32:58.266Z,47.00
2022-12-24T16:35:29.517Z,47.00
2022-12-24T16:37:57.965Z,47.00
2022-12-24T16:40:28.405Z,46.80
2022-12-24T16:43:15.806Z,46.60
2022-12-24T16:45:46.326Z,46.60
2022-12-24T16:48:22.503Z,46.40
2022-12-24T16:50:52.178Z,46.30
2022-12-24T16:53:23.869Z,46.20
2022-12-24T16:55:53.808Z,46.20
2022-12-24T16:58:23.522Z,46.60
2022-12-24T17:00:52.155Z,46.90
2022-12-24T17:03:20.881Z,47.10
2022-12-24T17:05:49.627Z,47.80
2022-12-24T17:08:19.343Z,46.90
2022-12-24T17:10:53.926Z,47.10
2022-12-24T17:13:22.583Z,47.20
2022-12-24T17:15:51.267Z,47.00
2022-12-24T17:18:19.778Z,46.80
2022-12-24T17:21:00.556Z,46.90
2022-12-24T17:23:29.528Z,47.10
2022-12-24T17:25:59.626Z,46.90
2022-12-24T17:28:28.113Z,47.00
2022-12-24T17:30:59.268Z,47.20
2022-12-24T17:33:27.892Z,47.30
2022-12-24T17:35:56.485Z,47.70
2022-12-24T17:38:25.296Z,48.00
2022-12-24T17:40:54.008Z,48.10
2022-12-24T17:43:24.058Z,48.30
2022-12-24T17:45:52.744Z,48.40
2022-12-24T17:48:21.752Z,48.80
2022-12-24T17:50:51.615Z,49.00
2022-12-24T17:53:20.652Z,49.30
2022-12-24T17:55:49.224Z,49.10
2022-12-24T17:58:17.918Z,48.90
2022-12-24T18:00:50.075Z,48.70
2022-12-24T18:03:18.997Z,48.50
2022-12-24T18:05:47.699Z,48.40
2022-12-24T18:08:16.995Z,48.70
2022-12-24T18:10:46.131Z,49.30
2022-12-24T18:13:19.314Z,49.10
2022-12-24T18:15:50.088Z,49.60
2022-12-24T18:18:18.896Z,50.00
2022-12-24T18:20:47.815Z,49.90
2022-12-24T18:23:16.455Z,49.60
2022-12-24T18:25:45.230Z,49.50
2022-12-24T18:28:13.852Z,49.60
2022-12-24T18:30:42.471Z,49.50
2022-12-24T18:33:12.794Z,49.80
2022-12-24T18:35:41.784Z,50.20
2022-12-24T18:38:10.581Z,50.30
2022-12-24T18:40:39.221Z,50.20
2022-12-24T18:43:08.592Z,50.20
2022-12-24T18:45:42.441Z,49.90
2022-12-24T18:48:14.279Z,50.00
2022-12-24T18:50:42.895Z,49.90
2022-12-24T18:53:16.274Z,49.50
2022-12-24T18:55:45.047Z,49.70
2022-12-24T18:58:13.568Z,49.60
2022-12-24T19:00:42.456Z,49.40
2022-12-24T19:03:16.237Z,50.10
2022-12-24T19:05:45.357Z,50.60
2022-12-24T19:08:46.928Z,51.10
2022-12-24T19:11:03.009Z,51.30
2022-12-24T19:13:31.518Z,51.20
2022-12-24T19:16:00.423Z,51.20
2022-12-24T19:18:30.451Z,51.10
2022-12-24T19:21:05.893Z,51.10
2022-12-24T19:23:34.952Z,51.10
2022-12-24T19:26:04.592Z,50.80
2022-12-24T19:28:34.265Z,50.50
2022-12-24T19:31:08.701Z,50.10
2022-12-24T19:33:42.863Z,49.80
2022-12-24T19:36:17.283Z,49.80
2022-12-24T19:38:46.834Z,49.40
2022-12-24T19:41:18.221Z,49.20
2022-12-24T19:43:49.828Z,49.10
2022-12-24T19:46:21.383Z,48.90
2022-12-24T19:48:53.855Z,48.60
2022-12-24T19:51:23.769Z,48.70
2022-12-24T19:53:53.189Z,48.50
2022-12-24T19:56:24.285Z,48.50
2022-12-24T19:58:53.147Z,48.20
2022-12-24T20:01:24.568Z,48.30
2022-12-24T20:03:56.524Z,48.40
2022-12-24T20:06:29.535Z,48.30
2022-12-24T20:09:01.303Z,48.40
2022-12-24T20:11:31.080Z,48.30
2022-12-24T20:14:01.749Z,48.30
2022-12-24T20:16:31.891Z,48.30
2022-12-24T20:19:04.037Z,48.60
2022-12-24T20:21:33.276Z,48.80
2022-12-24T20:24:02.015Z,48.70
2022-12-24T20:26:31.926Z,48.50
2022-12-24T20:29:04.503Z,48.40
2022-12-24T20:31:33.239Z,48.20
2022-12-24T20:34:05.313Z,48.30
2022-12-24T20:36:35.347Z,48.30
2022-12-24T20:39:06.084Z,48.00
2022-12-24T20:41:35.073Z,47.80
2022-12-24T20:44:04.635Z,47.90
2022-12-24T20:46:34.129Z,48.00
2022-12-24T20:49:04.236Z,47.90
2022-12-24T20:51:33.049Z,48.20
2022-12-24T20:54:03.028Z,48.20
2022-12-24T20:56:32.113Z,48.10
2022-12-24T20:59:02.067Z,47.90
2022-12-24T21:01:31.560Z,47.70
2022-12-24T21:04:07.483Z,47.70
2022-12-24T21:06:37.921Z,47.60
2022-12-24T21:09:07.079Z,47.60
2022-12-24T21:11:53.319Z,48.00
2022-12-24T21:14:23.934Z,48.20
2022-12-24T21:16:53.657Z,48.50
2022-12-24T21:19:25.510Z,48.30
2022-12-24T21:21:55.641Z,48.50
2022-12-24T21:24:25.746Z,48.90
2022-12-24T21:26:54.260Z,48.90
2022-12-24T21:29:22.816Z,48.90
2022-12-24T21:31:51.434Z,48.80
2022-12-24T21:34:20.007Z,48.40
2022-12-24T21:36:48.613Z,48.10
2022-12-24T21:39:20.028Z,47.70
2022-12-24T21:41:48.620Z,48.00
2022-12-24T21:44:17.248Z,48.20
2022-12-24T21:46:46.064Z,48.20
2022-12-24T21:49:31.974Z,48.10
2022-12-24T21:52:01.169Z,47.80
2022-12-24T21:54:31.350Z,47.90
2022-12-24T21:57:20.093Z,48.30
2022-12-24T21:59:51.744Z,48.40
2022-12-24T22:02:24.928Z,48.40
2022-12-24T22:04:53.569Z,48.40
2022-12-24T22:07:42.878Z,48.30
2022-12-24T22:10:31.985Z,48.20
2022-12-24T22:13:06.418Z,48.30
2022-12-24T22:15:35.757Z,48.40
2022-12-24T22:18:04.643Z,48.30
2022-12-24T22:20:33.275Z,48.10
2022-12-24T22:23:01.875Z,48.30
2022-12-24T22:25:32.723Z,48.70
2022-12-24T22:28:01.524Z,48.70
2022-12-24T22:30:30.493Z,48.70
2022-12-24T22:32:59.822Z,48.70
2022-12-24T22:35:28.484Z,48.70
2022-12-24T22:38:00.093Z,48.80
2022-12-24T22:40:29.221Z,48.50
2022-12-24T22:42:59.552Z,48.70
2022-12-24T22:45:28.328Z,49.30
2022-12-24T22:47:57.075Z,51.60
2022-12-24T22:50:25.687Z,52.50
2022-12-24T22:52:54.413Z,52.80
2022-12-24T22:55:23.032Z,53.20
2022-12-24T22:57:51.821Z,53.60
2022-12-24T23:00:40.876Z,54.40
2022-12-24T23:03:10.641Z,54.70
2022-12-24T23:05:40.799Z,55.00
2022-12-24T23:08:10.622Z,55.00
2022-12-24T23:10:42.075Z,55.20
2022-12-24T23:13:31.138Z,55.30
2022-12-24T23:16:04.639Z,55.70
2022-12-24T23:18:34.273Z,56.30
2022-12-24T23:21:07.457Z,56.60
2022-12-24T23:23:37.323Z,56.80
2022-12-24T23:26:08.651Z,57.10
2022-12-24T23:28:38.504Z,57.30
2022-12-24T23:31:09.205Z,57.30
2022-12-24T23:33:38.393Z,57.30
2022-12-24T23:36:08.520Z,57.00
2022-12-24T23:38:37.708Z,56.40
2022-12-24T23:41:09.594Z,56.00
2022-12-24T23:43:40.566Z,54.90
2022-12-24T23:46:15.131Z,53.70
2022-12-24T23:48:45.967Z,53.50
2022-12-24T23:51:19.205Z,53.20
2022-12-24T23:53:47.950Z,53.10
2022-12-24T23:56:16.467Z,52.80
2022-12-24T23:58:46.065Z,52.30
